Baqargarh, India

6:55 PM IST on December 11, 2016 (GMT +0530)
Indira Gandhi International | | Change Station

Elev 764 ft 28.57 °N, 77.12 °E | Updated 25 minutes ago

Haze
Haze
70 °F
Feels Like 70 °F
N
0
Wind Variable Wind from North

Today
High -- | Low -- °F
--% Chance of Precip.
Yesterday
High -- | Low -- °F
Precip. -- in
Pressure 29.89 in
Visibility 1.0 miles
Clouds
Dew Point 59 °F
Humidity 68%
Rainfall 0.00 in
Snow Depth Not available.
7:05 AM 5:26 PM
Waxing Gibbous, 91% visible
METAR VIDP 111300Z 00000KT 1600 R28/P2000 R29/P2000 FU NSC 21/15 Q1012 BECMG 1500 FU
Pressure 29.89 in
Visibility 1.0 miles
Clouds
Dew Point 59 °F
Humidity 68%
Rainfall 0.00 in
Snow Depth Not available.
7:05 AM 5:26 PM
Waxing Gibbous, 91% visible
METAR VIDP 111300Z 00000KT 1600 R28/P2000 R29/P2000 FU NSC 21/15 Q1012 BECMG 1500 FU

10-Day Weather Forecast

No radar image for this location.
×

Almanac

Astronomy

Dec. 11, 2016 Rise Set
Actual Time
Civil Twilight
Nautical Twilight
Astronomical Twilight
Moon
Length of Visible Light
Length of Day
Tomorrow will be .
, % of the Moon is Illuminated

Today's Extremes

Country Highs Country Lows

Community

WunderPhotos

Upload Photos

1,956,710 photos uploaded!

WunderBlog® & News

Nearby

Air Quality

  Air Quality AQ Index Pollutant
Not available.

Snow Depth

Station Depth Elevation

Earthquake Activity

City Distance Mag. Time & Date
Minimum magnitude displayed is 2.5.

Coastal Water Temperatures

Place Temperature

Stations

Nearby Weather Stations

Station Location Temp. Windchill Dew Point Humidity Wind Precip. Elev Updated Type